Time;durP1;ratioP1;P1;durP2;ratioP2;P2;SDS_P1;SDS_P2;PMS_P1;PMS_P2;Temp;Humidity;BMP_temperature;BMP_pressure;BME280_temperature;BME280_humidity;BME280_pressure;Samples;Min_cycle;Max_cycle;Signal;HPM_P1;HPM_P2
2021/01/21 00:00:22;;;;;;;2.58;1.88;;;10.00;99.90;;;;;;5111008;28;20192;-77
2021/01/21 00:02:48;;;;;;;2.60;1.70;;;10.00;99.90;;;;;;5110910;28;20189;-77
2021/01/21 00:05:15;;;;;;;1.88;1.75;;;10.00;99.90;;;;;;5094528;28;20201;-76
2021/01/21 00:07:42;;;;;;;3.10;1.58;;;10.00;99.90;;;;;;5090203;28;20213;-74
2021/01/21 00:10:09;;;;;;;2.17;1.27;;;10.10;99.90;;;;;;5090955;28;20205;-74
2021/01/21 00:12:35;;;;;;;4.45;1.85;;;10.10;99.90;;;;;;5108177;28;20201;-75
2021/01/21 00:15:02;;;;;;;3.50;1.40;;;10.10;99.90;;;;;;5111096;28;20529;-75
2021/01/21 00:17:28;;;;;;;4.20;1.90;;;10.00;99.90;;;;;;5111213;28;20431;-76
2021/01/21 00:19:54;;;;;;;2.05;1.52;;;10.00;99.90;;;;;;5105942;28;20207;-77
2021/01/21 00:22:21;;;;;;;3.45;1.30;;;10.00;99.90;;;;;;5098030;28;20200;-76
2021/01/21 00:24:48;;;;;;;2.33;1.80;;;10.00;99.90;;;;;;5110772;28;20660;-74
2021/01/21 00:27:14;;;;;;;1.92;1.58;;;10.10;99.90;;;;;;5090484;28;20229;-74
2021/01/21 00:29:40;;;;;;;2.95;1.38;;;10.10;99.90;;;;;;5097177;28;20200;-77
2021/01/21 00:32:06;;;;;;;1.85;1.15;;;10.10;99.90;;;;;;5109234;28;20641;-75
2021/01/21 00:34:33;;;;;;;5.20;1.55;;;10.10;99.90;;;;;;5107711;28;20204;-75
2021/01/21 00:36:59;;;;;;;3.15;1.40;;;10.10;99.90;;;;;;5099983;28;20203;-76
2021/01/21 00:39:25;;;;;;;2.30;1.65;;;10.10;99.90;;;;;;5096463;28;20201;-76
2021/01/21 00:41:52;;;;;;;2.90;1.50;;;10.10;99.90;;;;;;5108420;28;20207;-76
2021/01/21 00:44:19;;;;;;;2.97;1.70;;;10.10;99.90;;;;;;5109492;28;20246;-76
2021/01/21 00:46:45;;;;;;;1.65;1.30;;;10.10;99.90;;;;;;5110716;28;20228;-76
2021/01/21 00:49:11;;;;;;;4.78;1.40;;;10.10;99.90;;;;;;5094412;28;20278;-75
2021/01/21 00:51:38;;;;;;;2.60;1.50;;;10.10;99.90;;;;;;5108427;28;20730;-75
2021/01/21 00:54:04;;;;;;;4.53;1.85;;;10.10;99.90;;;;;;5108984;28;20260;-76
2021/01/21 00:56:30;;;;;;;2.00;1.10;;;10.10;99.90;;;;;;5093770;28;20219;-76
2021/01/21 00:58:58;;;;;;;4.13;1.92;;;10.10;99.90;;;;;;5100556;28;20205;-76
2021/01/21 01:01:24;;;;;;;1.75;1.30;;;10.10;99.90;;;;;;5109019;28;20200;-76
2021/01/21 01:03:51;;;;;;;1.90;1.55;;;10.10;99.90;;;;;;5103738;28;20200;-76
2021/01/21 01:06:17;;;;;;;2.72;1.60;;;10.20;99.90;;;;;;5108220;28;20189;-76
2021/01/21 01:08:44;;;;;;;4.00;1.50;;;10.10;99.90;;;;;;5101977;28;20215;-77
2021/01/21 01:11:11;;;;;;;2.35;1.35;;;10.20;99.90;;;;;;5109017;28;20192;-76
2021/01/21 01:13:37;;;;;;;1.50;1.13;;;10.20;99.90;;;;;;5110509;28;20838;-76
2021/01/21 01:16:05;;;;;;;3.35;1.48;;;10.20;99.90;;;;;;5107180;28;20224;-76
2021/01/21 01:18:32;;;;;;;1.80;1.20;;;10.20;99.90;;;;;;5094678;28;20262;-76
2021/01/21 01:20:58;;;;;;;2.47;1.20;;;10.20;99.90;;;;;;5090766;28;20205;-76
2021/01/21 01:23:24;;;;;;;1.85;1.42;;;10.20;99.90;;;;;;5090462;28;20540;-76
2021/01/21 01:25:53;;;;;;;2.78;1.70;;;10.20;99.90;;;;;;5103846;28;20258;-76
2021/01/21 01:28:19;;;;;;;1.35;1.15;;;10.20;99.90;;;;;;5108421;28;20219;-76
2021/01/21 01:30:45;;;;;;;3.72;1.35;;;10.20;99.90;;;;;;5113748;28;20196;-76
2021/01/21 01:33:12;;;;;;;1.38;0.90;;;10.20;99.90;;;;;;5114092;28;20201;-76
2021/01/21 01:35:39;;;;;;;3.55;1.60;;;10.20;99.90;;;;;;5114319;28;20208;-76
2021/01/21 01:38:05;;;;;;;2.00;1.20;;;10.20;99.90;;;;;;5104239;28;20204;-76
2021/01/21 01:40:32;;;;;;;1.75;1.20;;;10.20;99.90;;;;;;5095940;28;20258;-76
2021/01/21 01:42:58;;;;;;;1.40;1.23;;;10.20;99.90;;;;;;5113001;28;20795;-75
2021/01/21 01:45:24;;;;;;;2.40;1.45;;;10.20;99.90;;;;;;5114244;28;20292;-75
2021/01/21 01:47:51;;;;;;;2.80;1.50;;;10.20;99.90;;;;;;5114469;28;20216;-77
2021/01/21 01:50:18;;;;;;;3.42;1.33;;;10.20;99.90;;;;;;5112827;28;20207;-76
2021/01/21 01:52:45;;;;;;;4.53;1.48;;;10.20;99.90;;;;;;5094061;28;20201;-76
2021/01/21 01:55:13;;;;;;;2.85;1.88;;;10.20;99.90;;;;;;5094059;28;20198;-76
2021/01/21 01:57:40;;;;;;;2.08;1.23;;;10.20;99.90;;;;;;5099117;28;20220;-76
2021/01/21 02:00:08;;;;;;;2.10;1.40;;;10.20;99.90;;;;;;5113898;28;20197;-76
2021/01/21 02:02:34;;;;;;;2.88;1.80;;;10.20;99.90;;;;;;5114494;28;20205;-76
2021/01/21 02:05:01;;;;;;;4.68;1.52;;;10.20;99.90;;;;;;5114469;28;20218;-76
2021/01/21 02:07:28;;;;;;;2.65;1.40;;;10.20;99.90;;;;;;5105919;28;20213;-75
2021/01/21 02:09:57;;;;;;;2.58;1.33;;;10.20;99.90;;;;;;5111319;28;20274;-76
2021/01/21 02:12:34;;;;;;;1.58;1.20;;;10.20;99.90;;;;;;5093617;28;20208;-77
2021/01/21 02:15:08;;;;;;;2.58;1.20;;;10.20;99.90;;;;;;5093631;28;20205;-77
2021/01/21 02:17:39;;;;;;;1.35;1.25;;;10.20;99.90;;;;;;5101657;28;20204;-77
2021/01/21 02:20:34;;;;;;;2.60;1.27;;;10.20;99.90;;;;;;5112830;28;20646;-76
2021/01/21 02:23:46;;;;;;;1.20;1.08;;;10.20;99.90;;;;;;5114038;28;20249;-76
2021/01/21 02:26:18;;;;;;;4.20;1.23;;;10.30;99.90;;;;;;5093081;28;20205;-76
2021/01/21 02:29:06;;;;;;;1.92;1.10;;;10.30;99.90;;;;;;5113208;28;20246;-75
2021/01/21 02:31:45;;;;;;;2.65;1.35;;;10.30;99.90;;;;;;5113723;28;20204;-75
2021/01/21 02:34:19;;;;;;;5.25;1.50;;;10.20;99.90;;;;;;5102059;28;20193;-76
2021/01/21 02:36:51;;;;;;;11.52;1.48;;;10.20;99.90;;;;;;5113449;28;20211;-76
2021/01/21 02:39:20;;;;;;;1.88;1.13;;;10.30;99.90;;;;;;5113367;28;20185;-76
2021/01/21 02:41:47;;;;;;;4.25;1.52;;;10.30;99.90;;;;;;5093054;28;20209;-76
2021/01/21 02:44:13;;;;;;;2.30;1.77;;;10.30;99.90;;;;;;5099653;28;20197;-76
2021/01/21 02:46:40;;;;;;;1.65;1.27;;;10.30;99.90;;;;;;5112960;28;20228;-77
2021/01/21 02:49:06;;;;;;;1.60;1.00;;;10.30;99.90;;;;;;5113718;28;20204;-77
2021/01/21 02:51:40;;;;;;;2.95;1.30;;;10.30;99.90;;;;;;5113251;28;20235;-76
2021/01/21 02:54:34;;;;;;;2.83;1.70;;;10.30;99.90;;;;;;5102666;28;20237;-75
2021/01/21 02:57:05;;;;;;;1.52;1.23;;;10.30;99.90;;;;;;5092704;28;20572;-75
2021/01/21 02:59:33;;;;;;;3.17;1.42;;;10.30;99.90;;;;;;5092854;28;20519;-75
2021/01/21 03:02:03;;;;;;;2.15;1.38;;;10.30;99.90;;;;;;5092682;28;20206;-75
2021/01/21 03:04:30;;;;;;;4.13;1.35;;;10.30;99.90;;;;;;5101269;28;20203;-75
2021/01/21 03:06:59;;;;;;;1.65;1.10;;;10.30;99.90;;;;;;5107134;28;20221;-75
2021/01/21 03:09:25;;;;;;;2.47;1.60;;;10.30;99.90;;;;;;5113028;28;20205;-75
2021/01/21 03:11:51;;;;;;;10.02;1.80;;;10.30;99.90;;;;;;5113170;28;20204;-76
2021/01/21 03:14:18;;;;;;;1.40;1.02;;;10.30;99.90;;;;;;5107937;28;20194;-76
2021/01/21 03:16:44;;;;;;;1.80;1.45;;;10.30;99.90;;;;;;5092400;28;20215;-75
2021/01/21 03:19:10;;;;;;;2.42;1.20;;;10.30;99.90;;;;;;5092201;28;20668;-75
2021/01/21 03:21:36;;;;;;;6.00;1.20;;;10.30;99.90;;;;;;5091925;28;20197;-75
2021/01/21 03:24:04;;;;;;;2.13;1.33;;;10.30;99.90;;;;;;5111098;28;20200;-75
2021/01/21 03:26:31;;;;;;;2.10;1.40;;;10.30;99.90;;;;;;5112120;28;20208;-76
2021/01/21 03:28:57;;;;;;;2.17;1.33;;;10.30;99.90;;;;;;5112326;28;20204;-76
2021/01/21 03:31:23;;;;;;;5.20;1.63;;;10.30;99.90;;;;;;5096257;28;20198;-75
2021/01/21 03:33:49;;;;;;;1.25;1.15;;;10.30;99.90;;;;;;5108827;28;20258;-75
2021/01/21 03:36:16;;;;;;;1.60;1.00;;;10.30;99.90;;;;;;5112689;28;20204;-75
2021/01/21 03:38:42;;;;;;;2.08;1.40;;;10.40;99.90;;;;;;5105671;28;20208;-75
2021/01/21 03:41:09;;;;;;;4.50;1.27;;;10.30;99.90;;;;;;5092022;28;20229;-75
2021/01/21 03:43:35;;;;;;;3.53;1.10;;;10.40;99.90;;;;;;5106269;28;20282;-75
2021/01/21 03:46:02;;;;;;;2.75;1.20;;;10.40;99.90;;;;;;5111852;28;20239;-75
2021/01/21 03:48:28;;;;;;;2.80;1.95;;;10.40;99.90;;;;;;5092437;28;20218;-75
2021/01/21 03:50:54;;;;;;;1.42;1.33;;;10.40;99.90;;;;;;5091249;28;20607;-75
2021/01/21 03:53:20;;;;;;;5.40;1.38;;;10.40;99.90;;;;;;5103882;28;20653;-75
2021/01/21 03:55:47;;;;;;;2.33;1.10;;;10.40;99.90;;;;;;5105106;28;20266;-75
2021/01/21 03:58:14;;;;;;;1.95;1.38;;;10.40;99.90;;;;;;5101598;28;20193;-75
2021/01/21 04:00:40;;;;;;;2.20;1.13;;;10.40;99.90;;;;;;5111591;28;20231;-75
2021/01/21 04:03:07;;;;;;;1.38;1.00;;;10.40;99.90;;;;;;5112021;28;20208;-75
2021/01/21 04:05:33;;;;;;;1.10;0.98;;;10.40;99.90;;;;;;5100244;28;20197;-75
2021/01/21 04:07:59;;;;;;;2.30;1.35;;;10.40;99.90;;;;;;5091652;28;20225;-75
2021/01/21 04:10:25;;;;;;;1.48;0.90;;;10.40;99.90;;;;;;5091432;28;20230;-74
2021/01/21 04:12:52;;;;;;;3.47;1.73;;;10.40;99.90;;;;;;5099192;28;20193;-75
2021/01/21 04:15:19;;;;;;;2.00;1.55;;;10.50;99.90;;;;;;5098458;28;20216;-75
2021/01/21 04:17:45;;;;;;;1.83;1.10;;;10.50;99.90;;;;;;5100068;28;20200;-75
2021/01/21 04:20:12;;;;;;;1.20;1.05;;;10.50;99.90;;;;;;5112005;28;20581;-75
2021/01/21 04:22:39;;;;;;;1.83;1.73;;;10.50;99.90;;;;;;5101824;28;20204;-75
2021/01/21 04:25:06;;;;;;;5.00;1.23;;;10.50;99.90;;;;;;5111440;28;20197;-75
2021/01/21 04:27:32;;;;;;;1.63;1.05;;;10.50;99.90;;;;;;5110953;28;20526;-75
2021/01/21 04:29:59;;;;;;;2.65;1.20;;;10.50;99.90;;;;;;5105659;28;20209;-75
2021/01/21 04:32:26;;;;;;;1.42;1.20;;;10.50;99.90;;;;;;5095083;28;20195;-75
2021/01/21 04:34:52;;;;;;;1.55;1.10;;;10.50;99.90;;;;;;5107599;28;20261;-75
2021/01/21 04:37:19;;;;;;;1.73;1.10;;;10.50;99.90;;;;;;5111631;28;20204;-75
2021/01/21 04:39:45;;;;;;;3.05;1.00;;;10.50;99.90;;;;;;5111211;28;20200;-75
2021/01/21 04:42:11;;;;;;;2.28;1.40;;;10.50;99.90;;;;;;5110851;28;20192;-75
2021/01/21 04:44:38;;;;;;;1.70;1.50;;;10.50;99.90;;;;;;5108158;28;20197;-75
2021/01/21 04:47:05;;;;;;;7.03;1.48;;;10.60;99.90;;;;;;5111553;28;20204;-74
2021/01/21 04:49:33;;;;;;;2.70;1.20;;;10.60;99.90;;;;;;5110157;28;20200;-75
2021/01/21 04:52:04;;;;;;;1.60;1.08;;;10.60;99.90;;;;;;5100893;28;20216;-75
2021/01/21 04:54:40;;;;;;;1.17;0.98;;;10.60;99.90;;;;;;5090934;28;20197;-75
2021/01/21 04:57:10;;;;;;;1.60;1.02;;;10.60;99.90;;;;;;5091702;28;20233;-75
2021/01/21 04:59:36;;;;;;;2.08;1.20;;;10.60;99.90;;;;;;5094366;28;20205;-75
2021/01/21 05:02:04;;;;;;;1.85;1.10;;;10.60;99.90;;;;;;5092346;28;20250;-75
2021/01/21 05:04:30;;;;;;;2.33;1.48;;;10.60;99.90;;;;;;5095048;28;20211;-75
2021/01/21 05:06:58;;;;;;;2.40;1.45;;;10.60;99.90;;;;;;5094461;28;20213;-75
2021/01/21 05:09:24;;;;;;;3.60;1.35;;;10.60;99.90;;;;;;5108504;28;20200;-75
2021/01/21 05:11:51;;;;;;;2.58;1.30;;;10.60;99.90;;;;;;5115179;28;20200;-75
2021/01/21 05:14:17;;;;;;;1.75;0.90;;;10.60;99.90;;;;;;5102336;28;20810;-76
2021/01/21 05:16:44;;;;;;;1.80;1.10;;;10.60;99.90;;;;;;5094791;28;20633;-76
2021/01/21 05:19:13;;;;;;;1.20;0.95;;;10.70;99.90;;;;;;5094849;28;20200;-76
2021/01/21 05:21:40;;;;;;;1.85;1.23;;;10.70;99.90;;;;;;5110083;28;20544;-76
2021/01/21 05:24:10;;;;;;;1.70;1.05;;;10.70;99.90;;;;;;5103940;28;20397;-76
2021/01/21 05:26:36;;;;;;;1.95;1.25;;;10.70;99.90;;;;;;5114454;28;20629;-76
2021/01/21 05:29:03;;;;;;;1.92;1.30;;;10.70;99.90;;;;;;5100115;28;20197;-75
2021/01/21 05:31:31;;;;;;;3.05;1.30;;;10.70;99.90;;;;;;5107956;28;20214;-75
2021/01/21 05:33:58;;;;;;;4.22;1.15;;;10.70;99.90;;;;;;5115021;28;20196;-76
2021/01/21 05:36:24;;;;;;;1.40;1.15;;;10.70;99.90;;;;;;5111292;28;20197;-76
2021/01/21 05:38:55;;;;;;;2.03;1.40;;;10.70;99.90;;;;;;5094507;28;20198;-76
2021/01/21 05:41:24;;;;;;;1.73;1.00;;;10.70;99.90;;;;;;5106840;28;20223;-75
2021/01/21 05:43:51;;;;;;;1.83;1.00;;;10.80;99.90;;;;;;5102367;28;20644;-76
2021/01/21 05:46:18;;;;;;;2.10;1.08;;;10.80;99.90;;;;;;5093998;28;20239;-76
2021/01/21 05:48:44;;;;;;;1.67;0.88;;;10.80;99.90;;;;;;5094101;28;20229;-76
2021/01/21 05:51:11;;;;;;;2.22;1.20;;;10.80;99.90;;;;;;5104226;28;20189;-76
2021/01/21 05:53:39;;;;;;;1.45;0.80;;;10.80;99.90;;;;;;5107557;28;20201;-75
2021/01/21 05:56:09;;;;;;;1.60;1.13;;;10.80;99.90;;;;;;5114447;28;20196;-76
2021/01/21 05:58:37;;;;;;;3.05;1.25;;;10.80;99.90;;;;;;5114527;28;20203;-76
2021/01/21 06:01:05;;;;;;;1.30;1.00;;;10.80;99.90;;;;;;5112323;28;20197;-76
2021/01/21 06:03:33;;;;;;;1.60;1.02;;;10.90;99.90;;;;;;5114226;28;20197;-76
2021/01/21 06:06:00;;;;;;;1.17;0.93;;;10.90;99.90;;;;;;5108620;28;20212;-76
2021/01/21 06:08:29;;;;;;;1.50;1.10;;;10.90;99.90;;;;;;5094583;28;20217;-76
2021/01/21 06:10:56;;;;;;;1.38;0.90;;;10.90;99.90;;;;;;5098144;28;20215;-76
2021/01/21 06:13:22;;;;;;;1.20;1.00;;;10.90;99.90;;;;;;5092714;28;20204;-76
2021/01/21 06:15:50;;;;;;;1.88;0.90;;;10.80;99.90;;;;;;5093832;28;20204;-76
2021/01/21 06:18:16;;;;;;;2.83;0.95;;;10.80;99.90;;;;;;5110040;28;20243;-75
2021/01/21 06:20:42;;;;;;;1.25;1.00;;;10.80;99.90;;;;;;5112567;28;20212;-75
2021/01/21 06:23:14;;;;;;;1.73;1.02;;;10.80;99.90;;;;;;5114120;28;20196;-75
2021/01/21 06:25:42;;;;;;;0.90;0.70;;;10.70;99.90;;;;;;5109335;28;20627;-75
2021/01/21 06:28:10;;;;;;;1.40;1.00;;;10.70;99.90;;;;;;5093399;28;20217;-75
2021/01/21 06:30:38;;;;;;;1.10;1.00;;;10.70;99.90;;;;;;5098923;28;20263;-75
2021/01/21 06:33:06;;;;;;;2.75;0.90;;;10.70;99.90;;;;;;5095709;28;20205;-76
2021/01/21 06:35:34;;;;;;;0.95;0.75;;;10.70;99.90;;;;;;5102689;28;20296;-76
2021/01/21 06:38:06;;;;;;;0.90;0.70;;;10.70;99.90;;;;;;5110919;28;20201;-76
2021/01/21 06:40:34;;;;;;;1.65;0.93;;;10.70;99.90;;;;;;5111116;28;20200;-76
2021/01/21 06:43:08;;;;;;;4.50;0.90;;;10.70;99.90;;;;;;5106113;28;20588;-76
2021/01/21 06:45:35;;;;;;;1.08;0.80;;;10.60;99.90;;;;;;5092783;28;20442;-75
2021/01/21 06:48:01;;;;;;;1.20;0.75;;;10.60;99.90;;;;;;5092837;28;20209;-75
2021/01/21 06:50:30;;;;;;;1.90;1.10;;;10.60;99.90;;;;;;5110214;28;20205;-76
2021/01/21 06:52:59;;;;;;;1.00;0.70;;;10.60;99.90;;;;;;5105522;28;20199;-76
2021/01/21 06:55:27;;;;;;;1.52;1.08;;;10.60;99.90;;;;;;5093091;28;20193;-76
2021/01/21 06:57:53;;;;;;;0.90;0.70;;;10.60;99.90;;;;;;5100003;28;20197;-75
2021/01/21 07:00:40;;;;;;;1.55;0.93;;;10.60;99.90;;;;;;5112721;28;20677;-75
2021/01/21 07:03:07;;;;;;;1.10;0.82;;;10.50;99.90;;;;;;5092630;28;20935;-75
2021/01/21 07:05:34;;;;;;;1.00;0.80;;;10.50;99.90;;;;;;5092582;28;20193;-75
2021/01/21 07:08:04;;;;;;;1.00;0.80;;;10.60;99.90;;;;;;5102828;28;20228;-76
2021/01/21 07:10:37;;;;;;;1.00;0.70;;;10.50;99.90;;;;;;5112502;28;20206;-76
2021/01/21 07:13:05;;;;;;;1.35;0.80;;;10.50;99.90;;;;;;5111293;28;20204;-75
2021/01/21 07:15:43;;;;;;;3.15;1.00;;;10.50;99.90;;;;;;5096690;28;20577;-76
2021/01/21 07:18:16;;;;;;;1.08;0.85;;;10.50;99.90;;;;;;5113015;28;20245;-76
2021/01/21 07:21:08;;;;;;;1.00;0.85;;;10.50;99.90;;;;;;5112502;28;20551;-75
2021/01/21 07:23:46;;;;;;;2.65;0.90;;;10.50;99.90;;;;;;5097271;28;20212;-76
2021/01/21 07:26:27;;;;;;;2.80;0.88;;;10.50;99.90;;;;;;5111221;28;20197;-75
2021/01/21 07:29:11;;;;;;;1.35;0.80;;;10.40;99.90;;;;;;5109851;28;20205;-75
2021/01/21 07:32:11;;;;;;;1.42;1.00;;;10.40;99.90;;;;;;5099668;28;20193;-76
2021/01/21 07:34:45;;;;;;;1.35;0.80;;;10.40;99.90;;;;;;5112349;28;20232;-75
2021/01/21 07:37:22;;;;;;;0.80;0.70;;;10.40;99.90;;;;;;5110359;28;20205;-75
2021/01/21 07:39:54;;;;;;;2.30;0.80;;;10.40;99.90;;;;;;5108338;28;20249;-75
2021/01/21 07:42:21;;;;;;;1.05;0.85;;;10.30;99.90;;;;;;5112250;28;20208;-75
2021/01/21 07:44:58;;;;;;;2.22;0.75;;;10.40;99.90;;;;;;5108625;28;20751;-75
2021/01/21 07:47:28;;;;;;;4.40;1.10;;;10.30;99.90;;;;;;5091977;28;20217;-75
2021/01/21 07:50:30;;;;;;;2.00;0.80;;;10.30;99.90;;;;;;5092811;28;20197;-75
2021/01/21 07:52:58;;;;;;;1.20;0.82;;;10.30;99.90;;;;;;5091531;28;20212;-75
2021/01/21 07:55:26;;;;;;;1.77;0.85;;;10.30;99.90;;;;;;5091544;28;20284;-75
2021/01/21 07:57:52;;;;;;;1.58;0.90;;;10.30;99.90;;;;;;5102739;28;20200;-75
2021/01/21 08:00:20;;;;;;;1.25;0.88;;;10.30;99.90;;;;;;5110230;28;20205;-75
2021/01/21 08:02:48;;;;;;;2.08;0.90;;;10.20;99.90;;;;;;5110083;28;20204;-75
2021/01/21 08:05:16;;;;;;;1.00;0.82;;;10.20;99.90;;;;;;5091715;28;20209;-75
2021/01/21 08:07:46;;;;;;;2.75;1.20;;;10.20;99.90;;;;;;5101468;28;20217;-75
2021/01/21 08:10:15;;;;;;;1.70;0.85;;;10.20;99.90;;;;;;5100737;28;20197;-75
2021/01/21 08:12:42;;;;;;;1.77;0.80;;;10.20;99.90;;;;;;5111612;28;20200;-75
2021/01/21 08:15:17;;;;;;;1.10;0.70;;;10.20;99.90;;;;;;5111473;28;20586;-75
2021/01/21 08:17:45;;;;;;;2.05;1.05;;;10.20;99.90;;;;;;5110298;28;20636;-75
2021/01/21 08:20:12;;;;;;;1.20;1.00;;;10.20;99.90;;;;;;5111881;28;20201;-75
2021/01/21 08:22:52;;;;;;;1.90;1.08;;;10.20;99.90;;;;;;5111748;28;20201;-75
2021/01/21 08:25:19;;;;;;;2.58;0.80;;;10.10;99.90;;;;;;5104617;28;20236;-75
2021/01/21 08:27:47;;;;;;;1.30;1.08;;;10.20;99.90;;;;;;5111444;28;20660;-75
2021/01/21 08:30:20;;;;;;;2.13;1.20;;;10.10;99.90;;;;;;5092118;28;20240;-76
2021/01/21 08:32:51;;;;;;;2.47;1.00;;;10.10;99.90;;;;;;5108540;28;20212;-75
2021/01/21 08:35:22;;;;;;;2.10;1.20;;;10.10;99.90;;;;;;5107015;28;20193;-75
2021/01/21 08:37:50;;;;;;;2.85;0.80;;;10.10;99.90;;;;;;5093243;28;20193;-75
2021/01/21 08:40:17;;;;;;;5.28;1.15;;;10.00;99.90;;;;;;5103030;28;20208;-77
2021/01/21 08:42:47;;;;;;;3.70;1.15;;;10.00;99.90;;;;;;5091000;28;20565;-77
2021/01/21 08:45:14;;;;;;;3.00;1.25;;;10.00;99.90;;;;;;5090381;28;20731;-76
2021/01/21 08:47:42;;;;;;;2.33;1.48;;;10.00;99.90;;;;;;5090738;28;20918;-76
2021/01/21 08:50:10;;;;;;;1.38;1.27;;;10.00;99.90;;;;;;5109084;28;20212;-73
2021/01/21 08:52:37;;;;;;;1.05;0.95;;;10.00;99.90;;;;;;5105785;28;20208;-77
2021/01/21 08:55:04;;;;;;;1.60;1.20;;;10.00;99.90;;;;;;5100357;28;20197;-76
2021/01/21 08:57:30;;;;;;;1.77;1.20;;;10.00;99.90;;;;;;5107953;28;20541;-74
2021/01/21 09:00:13;;;;;;;2.63;1.13;;;9.90;99.90;;;;;;5107788;28;20276;-75
2021/01/21 09:02:43;;;;;;;3.50;1.20;;;10.00;99.90;;;;;;5102725;28;20216;-73
2021/01/21 09:05:10;;;;;;;2.85;1.10;;;10.00;99.90;;;;;;5102416;28;20723;-73
2021/01/21 09:07:36;;;;;;;1.85;1.10;;;10.00;99.90;;;;;;5110438;28;20686;-73
2021/01/21 09:10:10;;;;;;;6.13;1.52;;;9.90;99.90;;;;;;5105331;28;20567;-79
2021/01/21 09:12:36;;;;;;;1.73;1.00;;;9.90;99.90;;;;;;5108615;28;20209;-75
2021/01/21 09:15:04;;;;;;;2.40;1.15;;;10.10;99.90;;;;;;5110768;28;20197;-74
2021/01/21 09:17:32;;;;;;;1.27;0.90;;;10.00;99.90;;;;;;5110195;28;20199;-74
2021/01/21 09:19:59;;;;;;;8.45;1.35;;;10.10;99.90;;;;;;5110488;28;20193;-74
2021/01/21 09:22:28;;;;;;;2.45;1.13;;;10.10;99.90;;;;;;5094913;28;20308;-74
2021/01/21 09:24:56;;;;;;;2.45;0.95;;;10.20;99.90;;;;;;5109610;28;20211;-75
2021/01/21 09:27:23;;;;;;;1.90;1.15;;;10.30;99.90;;;;;;5090488;28;20225;-76
2021/01/21 09:29:51;;;;;;;1.90;1.05;;;10.30;99.90;;;;;;5098519;28;20513;-75
2021/01/21 09:32:18;;;;;;;6.18;1.50;;;10.40;99.90;;;;;;5091493;28;20208;-74
2021/01/21 09:34:56;;;;;;;1.73;1.15;;;10.40;99.90;;;;;;5102864;28;20300;-74
2021/01/21 09:37:24;;;;;;;1.58;1.23;;;10.40;99.90;;;;;;5100109;28;20177;-76
2021/01/21 09:39:50;;;;;;;2.22;1.58;;;10.50;99.90;;;;;;5110399;28;20197;-76
2021/01/21 09:42:17;;;;;;;2.50;1.20;;;10.50;99.90;;;;;;5104564;28;20250;-74
2021/01/21 09:44:44;;;;;;;1.45;1.10;;;10.50;99.90;;;;;;5105207;28;20296;-74
2021/01/21 09:47:10;;;;;;;1.98;1.20;;;10.50;99.90;;;;;;5108795;28;20204;-74
2021/01/21 09:49:36;;;;;;;2.10;1.20;;;10.50;99.90;;;;;;5125043;27;20625;-74
2021/01/21 09:52:06;;;;;;;2.75;1.20;;;10.50;99.90;;;;;;5106711;28;20724;-74
2021/01/21 09:54:32;;;;;;;1.50;1.00;;;10.60;99.90;;;;;;5122082;27;20772;-74
2021/01/21 09:56:59;;;;;;;2.60;1.27;;;10.60;99.90;;;;;;5124503;27;20869;-74
2021/01/21 09:59:25;;;;;;;2.80;1.40;;;10.60;99.90;;;;;;5113697;28;20211;-74
2021/01/21 10:01:51;;;;;;;2.33;1.05;;;10.60;99.90;;;;;;5113010;28;20193;-74
2021/01/21 10:04:18;;;;;;;2.00;1.65;;;10.60;99.90;;;;;;5093772;28;20193;-74
2021/01/21 10:06:44;;;;;;;2.20;1.00;;;10.70;99.90;;;;;;5093857;28;20201;-74
2021/01/21 10:09:11;;;;;;;2.97;1.10;;;10.60;99.90;;;;;;5106484;28;20221;-74
2021/01/21 10:11:39;;;;;;;4.70;1.70;;;10.50;99.90;;;;;;5093318;28;20197;-74
2021/01/21 10:14:06;;;;;;;3.65;1.20;;;10.50;99.90;;;;;;5096174;28;20616;-74
2021/01/21 10:16:32;;;;;;;4.20;1.60;;;10.50;99.90;;;;;;5105158;28;20201;-74
2021/01/21 10:18:59;;;;;;;5.35;1.30;;;10.50;99.90;;;;;;5104705;28;20193;-74
2021/01/21 10:21:25;;;;;;;3.05;1.33;;;10.50;99.90;;;;;;5114170;28;20590;-74
2021/01/21 10:23:51;;;;;;;2.83;1.20;;;10.50;99.90;;;;;;5102614;28;20641;-74
2021/01/21 10:26:19;;;;;;;3.65;1.20;;;10.40;99.90;;;;;;5109771;28;20525;-74
2021/01/21 10:28:45;;;;;;;2.67;1.20;;;10.40;99.90;;;;;;5102333;28;20221;-74
2021/01/21 10:31:11;;;;;;;4.78;1.48;;;10.40;99.90;;;;;;5097095;28;20306;-74
2021/01/21 10:33:38;;;;;;;4.93;1.60;;;10.40;99.90;;;;;;5101539;28;20207;-74
2021/01/21 10:36:05;;;;;;;2.63;1.33;;;10.40;99.90;;;;;;5110010;28;20274;-74
2021/01/21 10:38:31;;;;;;;3.75;1.58;;;10.30;99.90;;;;;;5110011;28;20507;-74
2021/01/21 10:40:57;;;;;;;2.55;1.08;;;10.40;99.90;;;;;;5113288;28;20200;-74
2021/01/21 10:43:24;;;;;;;3.35;1.40;;;10.30;99.90;;;;;;5105682;28;20207;-74
2021/01/21 10:45:51;;;;;;;3.55;1.45;;;10.40;99.90;;;;;;5109625;28;20688;-74
2021/01/21 10:48:17;;;;;;;3.40;1.60;;;10.40;99.90;;;;;;5112860;28;20217;-76
2021/01/21 10:50:43;;;;;;;2.28;1.02;;;10.40;99.90;;;;;;5106781;28;20205;-76
2021/01/21 10:53:10;;;;;;;3.63;1.33;;;10.40;99.90;;;;;;5100785;28;20199;-75
2021/01/21 10:55:36;;;;;;;2.45;1.40;;;10.40;99.90;;;;;;5112830;28;20204;-76
2021/01/21 10:58:04;;;;;;;5.25;1.63;;;10.40;99.90;;;;;;5104640;28;20233;-75
2021/01/21 11:00:31;;;;;;;2.05;1.30;;;10.30;99.90;;;;;;5112803;28;20204;-76
2021/01/21 11:02:58;;;;;;;3.55;1.20;;;10.30;99.90;;;;;;5112507;28;20207;-75
2021/01/21 11:05:24;;;;;;;4.45;1.45;;;10.30;99.90;;;;;;5110790;28;20682;-74
2021/01/21 11:07:51;;;;;;;7.78;1.63;;;10.30;99.90;;;;;;5092349;28;20223;-76
2021/01/21 11:10:17;;;;;;;4.00;1.30;;;10.30;99.90;;;;;;5100356;28;20201;-75
2021/01/21 11:12:45;;;;;;;3.47;1.70;;;10.30;99.90;;;;;;5112908;28;20197;-76
2021/01/21 11:15:12;;;;;;;2.90;1.30;;;10.30;99.90;;;;;;5112648;28;20300;-74
2021/01/21 11:17:39;;;;;;;1.33;1.10;;;10.30;99.90;;;;;;5112496;28;20200;-75
2021/01/21 11:20:07;;;;;;;9.02;1.20;;;10.30;99.90;;;;;;5098974;28;20629;-76
2021/01/21 11:22:33;;;;;;;5.68;1.55;;;10.30;99.90;;;;;;5112418;28;20197;-76
2021/01/21 11:24:59;;;;;;;2.38;1.58;;;10.20;99.90;;;;;;5112894;28;20228;-76
2021/01/21 11:27:25;;;;;;;5.40;1.50;;;10.20;99.90;;;;;;5093829;28;20221;-77
2021/01/21 11:29:52;;;;;;;2.08;1.20;;;10.30;99.90;;;;;;5108280;28;20196;-76
2021/01/21 11:32:18;;;;;;;4.82;1.55;;;10.20;99.90;;;;;;5100676;28;20212;-81
2021/01/21 11:34:45;;;;;;;2.53;1.60;;;10.20;99.90;;;;;;5091999;28;20197;-77
2021/01/21 11:37:11;;;;;;;5.28;1.90;;;10.20;99.90;;;;;;5095249;28;20212;-77
2021/01/21 11:39:37;;;;;;;3.70;1.30;;;10.20;99.90;;;;;;5101518;28;20246;-77
2021/01/21 11:42:04;;;;;;;1.98;1.38;;;10.20;99.90;;;;;;5112580;28;20541;-77
2021/01/21 11:44:30;;;;;;;6.65;1.40;;;10.10;99.90;;;;;;5108197;28;20679;-77
2021/01/21 11:46:56;;;;;;;2.85;1.08;;;10.20;99.90;;;;;;5112051;28;20192;-78
2021/01/21 11:49:23;;;;;;;3.97;1.80;;;10.10;99.90;;;;;;5104282;28;20213;-78
2021/01/21 11:51:50;;;;;;;4.88;1.52;;;10.10;99.90;;;;;;5109218;28;20199;-77
2021/01/21 11:54:17;;;;;;;3.38;1.48;;;10.10;99.90;;;;;;5111884;28;20196;-77
2021/01/21 11:56:43;;;;;;;5.30;1.60;;;10.10;99.90;;;;;;5104255;28;20205;-77
2021/01/21 11:59:09;;;;;;;3.78;1.20;;;10.00;99.90;;;;;;5107639;28;20722;-77
2021/01/21 12:01:35;;;;;;;2.33;1.42;;;10.00;99.90;;;;;;5106617;28;20269;-77
2021/01/21 12:04:01;;;;;;;3.63;1.13;;;10.00;99.90;;;;;;5109535;28;20245;-77
2021/01/21 12:06:28;;;;;;;1.85;1.20;;;10.10;99.90;;;;;;5106561;28;20193;-77
2021/01/21 12:08:55;;;;;;;3.33;1.90;;;10.00;99.90;;;;;;5105200;28;20231;-77
2021/01/21 12:11:21;;;;;;;1.95;1.27;;;10.10;99.90;;;;;;5111302;28;20720;-77
2021/01/21 12:13:47;;;;;;;2.70;1.25;;;10.10;99.90;;;;;;5100453;28;20246;-77
2021/01/21 12:16:13;;;;;;;4.57;1.23;;;10.00;99.90;;;;;;5090523;28;20204;-77
2021/01/21 12:18:39;;;;;;;2.80;1.30;;;10.00;99.90;;;;;;5091289;28;20193;-78
2021/01/21 12:21:06;;;;;;;5.35;1.40;;;10.10;99.90;;;;;;5106397;28;20215;-77
2021/01/21 12:23:32;;;;;;;3.05;1.20;;;10.10;99.90;;;;;;5107959;28;20188;-78
2021/01/21 12:26:01;;;;;;;3.10;1.40;;;10.10;99.90;;;;;;5111691;27;20193;-77
2021/01/21 12:28:27;;;;;;;3.50;1.42;;;10.10;99.90;;;;;;5099857;28;20205;-77
2021/01/21 12:30:54;;;;;;;4.57;1.70;;;10.10;99.90;;;;;;5110990;28;20189;-77
2021/01/21 12:33:20;;;;;;;1.55;1.00;;;10.00;99.90;;;;;;5108178;28;20275;-77
2021/01/21 12:35:46;;;;;;;2.25;1.25;;;10.00;99.90;;;;;;5109204;28;20201;-77
2021/01/21 12:38:12;;;;;;;3.25;1.38;;;10.10;99.90;;;;;;5104647;28;20185;-77
2021/01/21 12:40:39;;;;;;;1.92;1.15;;;10.00;99.90;;;;;;5110850;28;20219;-78
2021/01/21 12:43:06;;;;;;;3.42;1.40;;;10.00;99.90;;;;;;5110288;28;20205;-77
2021/01/21 12:45:32;;;;;;;1.95;1.00;;;10.00;99.90;;;;;;5109143;28;20247;-77
2021/01/21 12:47:58;;;;;;;2.35;1.63;;;10.10;99.90;;;;;;5102256;28;20228;-77
2021/01/21 12:50:24;;;;;;;2.58;1.08;;;10.10;99.90;;;;;;5102229;28;20203;-76
2021/01/21 12:52:50;;;;;;;2.58;1.15;;;10.10;99.90;;;;;;5096991;28;20201;-77